Time;durP1;ratioP1;P1;durP2;ratioP2;P2;SDS_P1;SDS_P2;PMS_P1;PMS_P2;Temp;Humidity;BMP_temperature;BMP_pressure;BME280_temperature;BME280_humidity;BME280_pressure;Samples;Min_cycle;Max_cycle;Signal;HPM_P1;HPM_P2
2023/02/10 00:00:17;;;;;;;58.30;28.83;;;;;;;-2.86;100.00;102293.75;5030560;28;20316;-74
2023/02/10 00:02:43;;;;;;;45.53;27.92;;;;;;;-2.73;100.00;102297.78;5041712;28;20205;-73
2023/02/10 00:05:10;;;;;;;60.45;28.58;;;;;;;-2.60;100.00;102301.78;5047732;28;20629;-72
2023/02/10 00:07:36;;;;;;;46.17;26.65;;;;;;;-2.65;100.00;102306.00;5045550;28;20193;-74
2023/02/10 00:10:05;;;;;;;51.00;27.25;;;;;;;-2.69;100.00;102304.06;5047167;28;20308;-73
2023/02/10 00:12:31;;;;;;;55.50;28.98;;;;;;;-2.76;100.00;102305.56;5043026;28;20211;-73
2023/02/10 00:14:58;;;;;;;89.68;43.97;;;;;;;-2.80;100.00;102299.28;5042234;28;20205;-74
2023/02/10 00:17:24;;;;;;;54.25;29.83;;;;;;;-2.91;100.00;102302.34;5043543;28;20287;-74
2023/02/10 00:19:51;;;;;;;48.80;26.50;;;;;;;-2.89;100.00;102295.38;5042776;28;20224;-73
2023/02/10 00:22:18;;;;;;;51.13;27.55;;;;;;;-2.84;100.00;102299.09;5042295;28;20570;-73
2023/02/10 00:24:44;;;;;;;43.35;25.70;;;;;;;-2.76;100.00;102314.41;5042773;28;20272;-73
2023/02/10 00:27:12;;;;;;;49.50;26.63;;;;;;;-2.81;100.00;102315.94;5041676;28;20212;-73
2023/02/10 00:29:39;;;;;;;55.00;28.30;;;;;;;-2.78;100.00;102323.06;5042117;28;20335;-72
2023/02/10 00:32:05;;;;;;;49.72;27.25;;;;;;;-2.68;100.00;102324.34;5042560;28;20204;-74
2023/02/10 00:34:32;;;;;;;53.22;29.08;;;;;;;-2.60;100.00;102318.53;5044562;28;20200;-74
2023/02/10 00:36:58;;;;;;;56.17;29.52;;;;;;;-2.56;100.00;102328.34;5043158;28;20205;-73
2023/02/10 00:39:25;;;;;;;56.75;30.75;;;;;;;-2.50;100.00;102327.72;5040028;28;20697;-74
2023/02/10 00:41:51;;;;;;;52.03;28.30;;;;;;;-2.60;100.00;102326.47;5037958;28;20216;-77
2023/02/10 00:44:19;;;;;;;55.97;30.48;;;;;;;-2.59;100.00;102324.72;5036645;28;20219;-73
2023/02/10 00:46:46;;;;;;;54.88;28.20;;;;;;;-2.55;100.00;102339.81;5035520;28;20224;-74
2023/02/10 00:49:12;;;;;;;52.00;28.02;;;;;;;-2.69;100.00;102339.28;5038047;28;20588;-74
2023/02/10 00:51:39;;;;;;;51.00;31.23;;;;;;;-2.78;100.00;102338.88;5040487;28;20289;-73
2023/02/10 00:54:06;;;;;;;54.30;31.13;;;;;;;-2.78;100.00;102347.72;5036847;28;20200;-74
2023/02/10 00:56:32;;;;;;;51.22;28.02;;;;;;;-2.76;100.00;102351.31;5036029;28;20196;-74
2023/02/10 00:58:59;;;;;;;54.15;30.75;;;;;;;-2.75;100.00;102347.84;5036321;28;20300;-74
2023/02/10 01:01:27;;;;;;;49.13;27.85;;;;;;;-2.74;100.00;102351.38;5076345;22;20236;-75
2023/02/10 01:03:53;;;;;;;55.40;31.55;;;;;;;-2.85;100.00;102343.03;5037482;28;20283;-74
2023/02/10 01:06:20;;;;;;;51.45;27.58;;;;;;;-2.83;100.00;102349.25;5037322;28;20295;-74
2023/02/10 01:08:46;;;;;;;56.92;30.35;;;;;;;-2.88;100.00;102337.63;5041492;28;20207;-74
2023/02/10 01:11:14;;;;;;;51.67;29.75;;;;;;;-2.91;100.00;102337.50;5036357;28;20315;-73
2023/02/10 01:13:42;;;;;;;51.47;30.00;;;;;;;-2.86;100.00;102349.16;5039215;28;20193;-75
2023/02/10 01:16:12;;;;;;;51.83;28.08;;;;;;;-2.86;100.00;102351.78;5040410;28;20212;-75
2023/02/10 01:18:42;;;;;;;57.00;29.55;;;;;;;-2.80;100.00;102356.41;5040219;28;20711;-75
2023/02/10 01:21:09;;;;;;;64.20;30.38;;;;;;;-2.85;100.00;102357.94;5041270;28;20231;-73
2023/02/10 01:23:36;;;;;;;54.55;28.52;;;;;;;-3.01;100.00;102362.63;5041803;28;20291;-74
2023/02/10 01:26:03;;;;;;;52.88;28.67;;;;;;;-2.99;100.00;102357.38;5041327;28;20551;-75
2023/02/10 01:28:30;;;;;;;44.95;28.23;;;;;;;-3.10;100.00;102366.59;5039885;28;20209;-74
2023/02/10 01:30:57;;;;;;;55.75;28.90;;;;;;;-3.04;100.00;102362.47;5037900;28;20247;-74
2023/02/10 01:33:24;;;;;;;56.50;29.65;;;;;;;-3.08;100.00;102362.28;5037600;28;20201;-75
2023/02/10 01:35:52;;;;;;;63.17;32.03;;;;;;;-3.16;100.00;102367.25;5041224;28;20207;-73
2023/02/10 01:38:19;;;;;;;54.95;29.75;;;;;;;-3.10;100.00;102369.22;5044992;28;20228;-73
2023/02/10 01:40:48;;;;;;;54.65;32.38;;;;;;;-3.07;100.00;102365.00;5047374;28;20284;-73
2023/02/10 01:43:17;;;;;;;58.05;29.67;;;;;;;-3.01;100.00;102364.31;5038561;28;20197;-73
2023/02/10 01:45:45;;;;;;;56.58;31.15;;;;;;;-2.98;100.00;102370.66;5045151;28;20287;-75
2023/02/10 01:48:13;;;;;;;59.17;31.13;;;;;;;-3.05;100.00;102380.84;5042555;28;20255;-73
2023/02/10 01:50:44;;;;;;;52.08;29.48;;;;;;;-2.94;100.00;102374.28;5043338;28;20221;-73
2023/02/10 01:53:12;;;;;;;53.95;30.60;;;;;;;-2.94;100.00;102380.50;5045376;28;20227;-73
2023/02/10 01:55:42;;;;;;;57.38;29.70;;;;;;;-3.07;100.00;102388.72;5046515;28;20247;-72
2023/02/10 01:58:11;;;;;;;69.88;29.88;;;;;;;-3.12;100.00;102382.34;5044169;28;20201;-73
2023/02/10 02:00:38;;;;;;;59.03;31.63;;;;;;;-3.07;100.00;102386.06;5041048;28;20246;-73
2023/02/10 02:03:05;;;;;;;48.53;26.85;;;;;;;-3.02;100.00;102383.63;5040966;28;20224;-74
2023/02/10 02:05:34;;;;;;;55.72;30.05;;;;;;;-2.95;100.00;102377.78;5040571;28;20716;-73
2023/02/10 02:08:05;;;;;;;52.15;30.52;;;;;;;-2.93;100.00;102384.00;5037011;28;20192;-74
2023/02/10 02:10:48;;;;;;;52.83;28.70;;;;;;;-2.89;100.00;102390.28;5036366;28;20222;-75
2023/02/10 02:13:23;;;;;;;52.10;28.80;;;;;;;-2.88;100.00;102385.09;5037116;28;20260;-73
2023/02/10 02:15:58;;;;;;;59.80;30.52;;;;;;;-2.66;100.00;102388.63;5037275;28;20475;-73
2023/02/10 02:18:33;;;;;;;52.70;29.05;;;;;;;-2.74;100.00;102388.28;5036523;28;20701;-76
2023/02/10 02:21:43;;;;;;;59.58;30.23;;;;;;;-2.82;100.00;102379.19;5035997;28;20233;-74
2023/02/10 02:24:27;;;;;;;46.40;27.73;;;;;;;-2.78;100.00;102389.94;5006328;28;20202;-72
2023/02/10 02:27:16;;;;;;;57.45;29.85;;;;;;;-2.75;100.00;102386.50;5023709;28;20195;-73
2023/02/10 02:30:12;;;;;;;58.40;29.50;;;;;;;-2.67;100.00;102389.44;5043333;28;20548;-72
2023/02/10 02:32:43;;;;;;;45.20;27.27;;;;;;;-2.50;100.00;102398.94;5044657;28;20204;-72
2023/02/10 02:35:14;;;;;;;50.10;28.75;;;;;;;-2.47;100.00;102392.88;5042749;28;20568;-73
2023/02/10 02:37:43;;;;;;;51.40;30.15;;;;;;;-2.39;100.00;102391.47;5042432;28;20232;-73
2023/02/10 02:40:11;;;;;;;45.38;27.40;;;;;;;-2.44;100.00;102399.22;5041884;28;20227;-74
2023/02/10 02:42:38;;;;;;;55.67;28.75;;;;;;;-2.39;100.00;102394.09;5032735;28;20217;-73
2023/02/10 02:45:09;;;;;;;46.88;28.25;;;;;;;-2.27;100.00;102397.22;5040235;28;20211;-74
2023/02/10 02:47:48;;;;;;;54.58;29.83;;;;;;;-2.20;100.00;102401.88;5038864;28;20223;-73
2023/02/10 02:50:23;;;;;;;51.35;29.65;;;;;;;-2.24;100.00;102396.44;5036944;28;20330;-75
2023/02/10 02:53:14;;;;;;;53.85;30.05;;;;;;;-2.20;100.00;102401.00;5017380;28;20220;-75
2023/02/10 02:55:51;;;;;;;50.90;27.17;;;;;;;-2.18;100.00;102404.59;5017729;28;20570;-74
2023/02/10 02:58:27;;;;;;;47.92;28.35;;;;;;;-2.05;100.00;102414.78;5032567;28;20251;-74
2023/02/10 03:01:00;;;;;;;52.22;28.25;;;;;;;-2.06;100.00;102405.06;5034499;28;20242;-75
2023/02/10 03:03:28;;;;;;;58.20;29.58;;;;;;;-2.06;100.00;102407.69;5034910;28;20233;-74
2023/02/10 03:05:55;;;;;;;47.58;28.90;;;;;;;-1.90;100.00;102402.19;5034339;28;20204;-74
2023/02/10 03:08:21;;;;;;;49.00;26.98;;;;;;;-1.80;100.00;102402.53;5034205;28;20297;-74
2023/02/10 03:10:48;;;;;;;51.95;28.38;;;;;;;-1.90;100.00;102398.63;5045873;28;20726;-74
2023/02/10 03:13:15;;;;;;;50.67;27.00;;;;;;;-1.94;100.00;102394.09;5051115;28;20208;-73
2023/02/10 03:15:42;;;;;;;48.75;28.08;;;;;;;-1.98;100.00;102392.16;5051118;28;20228;-75
2023/02/10 03:18:08;;;;;;;48.50;26.75;;;;;;;-1.96;100.00;102394.00;5044828;28;20201;-74
2023/02/10 03:20:36;;;;;;;50.47;28.65;;;;;;;-1.90;100.00;102388.97;5040526;28;20292;-74
2023/02/10 03:23:03;;;;;;;46.08;27.73;;;;;;;-1.92;100.00;102385.38;5038964;28;20298;-75
2023/02/10 03:25:29;;;;;;;46.60;25.88;;;;;;;-1.83;100.00;102391.81;5055345;28;20207;-76
2023/02/10 03:27:56;;;;;;;53.45;29.50;;;;;;;-1.78;100.00;102393.81;5056798;28;20185;-76
2023/02/10 03:30:23;;;;;;;49.78;28.33;;;;;;;-1.80;100.00;102399.88;5057035;28;20269;-76
2023/02/10 03:32:51;;;;;;;48.20;27.45;;;;;;;-1.62;100.00;102394.38;5057225;28;20193;-75
2023/02/10 03:35:17;;;;;;;48.10;26.02;;;;;;;-1.61;100.00;102393.50;5057152;28;20223;-75
2023/02/10 03:37:46;;;;;;;48.05;25.38;;;;;;;-1.54;100.00;102396.47;5055319;28;20185;-75
2023/02/10 03:40:13;;;;;;;44.33;27.58;;;;;;;-1.75;100.00;102398.28;5050200;28;20296;-74
2023/02/10 03:42:40;;;;;;;43.83;26.45;;;;;;;-1.59;100.00;102397.13;5036610;28;20662;-74
2023/02/10 03:45:07;;;;;;;47.58;28.30;;;;;;;-1.55;100.00;102397.28;5036437;28;20236;-74
2023/02/10 03:47:34;;;;;;;53.60;27.60;;;;;;;-1.49;100.00;102400.16;5034474;28;20205;-76
2023/02/10 03:50:00;;;;;;;55.85;28.77;;;;;;;-1.54;100.00;102407.03;5034130;28;20230;-75
2023/02/10 03:52:27;;;;;;;43.90;26.38;;;;;;;-1.56;100.00;102406.06;5034343;28;20209;-74
2023/02/10 03:54:55;;;;;;;49.70;29.17;;;;;;;-1.47;100.00;102409.03;5034647;28;20248;-73
2023/02/10 03:57:22;;;;;;;53.60;26.88;;;;;;;-1.47;100.00;102409.03;5034138;28;20295;-74
2023/02/10 03:59:48;;;;;;;50.72;27.67;;;;;;;-1.44;100.00;102410.00;5035882;28;20208;-74
2023/02/10 04:02:15;;;;;;;55.25;28.35;;;;;;;-1.57;100.00;102408.66;5046906;28;20219;-72
2023/02/10 04:04:41;;;;;;;47.38;27.85;;;;;;;-1.53;100.00;102422.03;5046764;28;20215;-74
2023/02/10 04:07:08;;;;;;;48.00;28.17;;;;;;;-1.41;100.00;102418.91;5039938;28;20292;-74
2023/02/10 04:09:35;;;;;;;44.33;26.63;;;;;;;-1.50;100.00;102421.22;5040199;28;20203;-74
2023/02/10 04:12:03;;;;;;;57.15;28.85;;;;;;;-1.49;100.00;102415.13;5035088;28;20201;-75
2023/02/10 04:14:29;;;;;;;48.85;26.80;;;;;;;-1.59;100.00;102416.50;5035045;28;20224;-73
2023/02/10 04:16:56;;;;;;;56.08;29.70;;;;;;;-1.65;100.00;102424.22;5035210;28;20625;-73
2023/02/10 04:19:22;;;;;;;47.20;28.48;;;;;;;-1.60;100.00;102422.66;5033092;28;20204;-74
2023/02/10 04:21:49;;;;;;;52.00;28.88;;;;;;;-1.55;100.00;102418.44;5034981;28;20231;-74
2023/02/10 04:24:16;;;;;;;53.35;29.55;;;;;;;-1.48;100.00;102430.13;5037992;28;20201;-74
2023/02/10 04:26:42;;;;;;;51.88;27.42;;;;;;;-1.45;100.00;102434.63;5037273;28;20688;-74
2023/02/10 04:29:10;;;;;;;51.35;29.48;;;;;;;-1.43;100.00;102440.88;5039003;28;20677;-75
2023/02/10 04:31:37;;;;;;;44.10;27.63;;;;;;;-1.47;100.00;102440.75;5045564;28;20249;-74
2023/02/10 04:34:03;;;;;;;44.30;26.83;;;;;;;-1.43;100.00;102432.94;5054336;28;20228;-74
2023/02/10 04:36:30;;;;;;;51.63;27.15;;;;;;;-1.34;100.00;102436.78;5053409;28;20208;-74
2023/02/10 04:38:57;;;;;;;48.42;26.77;;;;;;;-1.27;100.00;102443.19;5053031;28;20205;-75
2023/02/10 04:41:23;;;;;;;53.00;27.83;;;;;;;-1.28;100.00;102444.97;5041734;28;20239;-73
2023/02/10 04:43:50;;;;;;;49.50;28.35;;;;;;;-1.23;100.00;102442.47;5042778;28;20237;-74
2023/02/10 04:46:18;;;;;;;49.05;28.55;;;;;;;-1.19;100.00;102448.78;5040562;28;20232;-75
2023/02/10 04:48:44;;;;;;;46.28;27.15;;;;;;;-1.15;100.00;102454.25;5038617;28;20241;-73
2023/02/10 04:51:14;;;;;;;53.00;28.80;;;;;;;-1.28;100.00;102444.97;5038767;28;20260;-73
2023/02/10 04:53:43;;;;;;;45.72;27.20;;;;;;;-1.17;100.00;102452.38;5039038;28;20212;-74
2023/02/10 04:56:10;;;;;;;45.50;28.65;;;;;;;-1.12;100.00;102456.97;5039047;28;20255;-75
2023/02/10 04:58:37;;;;;;;45.47;27.80;;;;;;;-1.07;100.00;102458.03;5037515;28;20288;-75
2023/02/10 05:01:04;;;;;;;52.28;27.48;;;;;;;-1.10;100.00;102454.41;5037629;28;20672;-74
2023/02/10 05:03:32;;;;;;;47.70;25.75;;;;;;;-1.05;100.00;102460.75;5035614;28;20214;-75
2023/02/10 05:05:59;;;;;;;51.05;29.55;;;;;;;-1.09;100.00;102451.78;5044465;28;20660;-75
2023/02/10 05:08:26;;;;;;;51.90;28.55;;;;;;;-0.95;100.00;102456.66;5041265;28;20204;-73
2023/02/10 05:10:53;;;;;;;47.55;27.52;;;;;;;-0.89;100.00;102459.53;5039427;28;20705;-73
2023/02/10 05:13:20;;;;;;;45.60;27.35;;;;;;;-0.81;100.00;102462.44;5039801;28;20213;-73
2023/02/10 05:15:48;;;;;;;48.00;28.42;;;;;;;-1.01;100.00;102453.81;5040775;28;20245;-76
2023/02/10 05:18:14;;;;;;;45.53;26.83;;;;;;;-0.83;100.00;102464.16;5040297;28;20209;-76
2023/02/10 05:20:42;;;;;;;50.40;27.83;;;;;;;-0.91;100.00;102464.75;5044655;28;20225;-74
2023/02/10 05:23:09;;;;;;;52.17;27.10;;;;;;;-0.81;100.00;102462.44;5046861;28;20223;-75
2023/02/10 05:25:35;;;;;;;46.92;26.40;;;;;;;-0.84;100.00;102463.22;5049142;28;20232;-73
2023/02/10 05:28:02;;;;;;;51.90;28.20;;;;;;;-0.74;100.00;102464.47;5047449;28;20263;-73
2023/02/10 05:30:28;;;;;;;42.47;26.55;;;;;;;-0.65;100.00;102462.13;5043396;28;20227;-75
2023/02/10 05:32:55;;;;;;;55.05;27.50;;;;;;;-0.66;100.00;102461.22;5040909;28;20759;-74
2023/02/10 05:35:22;;;;;;;45.08;28.80;;;;;;;-0.79;100.00;102460.72;5040100;28;20216;-73
2023/02/10 05:37:50;;;;;;;44.65;26.02;;;;;;;-0.67;100.00;102466.47;5039861;28;20205;-73
2023/02/10 05:40:16;;;;;;;41.72;26.90;;;;;;;-0.74;100.00;102467.09;5041583;28;20215;-73
2023/02/10 05:42:43;;;;;;;48.90;27.55;;;;;;;-0.75;100.00;102471.47;5043422;28;20216;-75
2023/02/10 05:45:10;;;;;;;45.85;28.40;;;;;;;-0.80;100.00;102467.78;5043363;28;20210;-74
2023/02/10 05:47:36;;;;;;;46.17;27.38;;;;;;;-0.75;100.00;102470.59;5041763;28;20205;-76
2023/02/10 05:50:03;;;;;;;43.97;27.17;;;;;;;-0.73;100.00;102469.78;5042449;28;20235;-74
2023/02/10 05:52:30;;;;;;;48.22;27.92;;;;;;;-0.64;100.00;102477.13;5041827;28;20259;-73
2023/02/10 05:54:58;;;;;;;44.78;27.90;;;;;;;-0.61;100.00;102478.97;5042708;28;20215;-74
2023/02/10 05:57:25;;;;;;;43.10;27.15;;;;;;;-0.53;100.00;102470.47;5042741;28;20205;-73
2023/02/10 05:59:51;;;;;;;45.58;27.50;;;;;;;-0.56;100.00;102475.66;5043216;28;20725;-74
2023/02/10 06:02:18;;;;;;;45.10;26.20;;;;;;;-0.74;100.00;102475.03;5043666;28;20268;-72
2023/02/10 06:04:45;;;;;;;44.83;26.50;;;;;;;-0.82;100.00;102461.53;5046789;28;20204;-74
2023/02/10 06:07:11;;;;;;;47.60;27.70;;;;;;;-0.83;100.00;102474.72;5047230;28;20196;-73
2023/02/10 06:09:39;;;;;;;45.13;27.00;;;;;;;-0.84;100.00;102471.16;5046813;28;20209;-73
2023/02/10 06:12:07;;;;;;;47.67;29.67;;;;;;;-0.81;100.00;102468.63;5039389;28;20204;-75
2023/02/10 06:14:34;;;;;;;55.67;32.03;;;;;;;-0.70;100.00;102479.56;5042067;28;20204;-74
2023/02/10 06:17:01;;;;;;;39.53;25.48;;;;;;;-0.57;100.00;102479.13;5040035;28;20710;-75
2023/02/10 06:19:28;;;;;;;45.55;28.33;;;;;;;-0.68;100.00;102473.50;5038214;28;20201;-76
2023/02/10 06:21:55;;;;;;;48.05;26.50;;;;;;;-0.81;100.00;102484.50;5038808;28;20235;-75
2023/02/10 06:24:21;;;;;;;41.50;26.40;;;;;;;-0.91;100.00;102477.97;5041161;28;20708;-74
2023/02/10 06:26:48;;;;;;;49.50;26.88;;;;;;;-0.95;100.00;102485.75;5040540;28;20721;-75
2023/02/10 06:29:16;;;;;;;44.95;27.60;;;;;;;-1.05;100.00;102481.91;5046205;28;20201;-72
2023/02/10 06:31:42;;;;;;;50.45;27.85;;;;;;;-0.94;100.00;102483.19;5042561;28;20228;-73
2023/02/10 06:34:09;;;;;;;44.50;27.27;;;;;;;-1.07;100.00;102476.53;5042917;28;20276;-74
2023/02/10 06:36:36;;;;;;;43.92;27.90;;;;;;;-0.99;100.00;102475.94;5045718;28;20196;-74
2023/02/10 06:39:02;;;;;;;44.78;26.88;;;;;;;-1.13;100.00;102480.72;5042539;28;20292;-76
2023/02/10 06:41:29;;;;;;;45.17;26.25;;;;;;;-1.27;100.00;102485.50;5036342;28;20237;-73
2023/02/10 06:43:55;;;;;;;47.70;26.77;;;;;;;-1.38;100.00;102489.50;5036627;28;20231;-76
2023/02/10 06:46:25;;;;;;;44.45;27.30;;;;;;;-1.32;100.00;102490.63;5036788;28;20201;-75
2023/02/10 06:48:51;;;;;;;47.42;27.10;;;;;;;-1.30;100.00;102493.34;5035571;28;20205;-76
2023/02/10 06:51:18;;;;;;;49.15;28.85;;;;;;;-1.38;100.00;102492.16;5037707;28;20220;-74
2023/02/10 06:53:45;;;;;;;43.85;27.10;;;;;;;-1.40;100.00;102501.75;5037331;28;20284;-75
2023/02/10 06:56:12;;;;;;;46.30;28.15;;;;;;;-1.38;100.00;102500.06;5034939;28;20264;-76
2023/02/10 06:58:39;;;;;;;48.72;27.20;;;;;;;-1.35;100.00;102510.78;5030927;28;20288;-75
2023/02/10 07:01:08;;;;;;;47.22;27.30;;;;;;;-1.31;100.00;102518.00;5047251;22;20236;-71
2023/02/10 07:03:36;;;;;;;54.97;28.48;;;;;;;-1.37;100.00;102512.47;5041946;28;20247;-72
2023/02/10 07:06:03;;;;;;;48.30;27.65;;;;;;;-1.40;100.00;102515.91;5041560;28;20560;-73
2023/02/10 07:08:30;;;;;;;46.28;26.23;;;;;;;-1.31;100.00;102518.00;5036755;28;20581;-71
2023/02/10 07:10:56;;;;;;;49.33;26.73;;;;;;;-1.28;100.00;102523.38;5049746;28;20216;-71
2023/02/10 07:13:23;;;;;;;47.17;26.80;;;;;;;-1.28;100.00;102518.09;5053351;28;20287;-71
2023/02/10 07:15:49;;;;;;;58.92;27.48;;;;;;;-1.24;100.00;102512.09;5035041;28;20682;-73
2023/02/10 07:18:16;;;;;;;118.80;56.70;;;;;;;-1.07;100.00;102517.97;5033640;28;20236;-72
2023/02/10 07:20:44;;;;;;;68.30;34.95;;;;;;;-1.11;100.00;102524.91;5033860;28;20231;-74
2023/02/10 07:23:10;;;;;;;55.22;31.75;;;;;;;-1.10;100.00;102529.34;5033773;28;20592;-72
2023/02/10 07:25:37;;;;;;;50.88;28.60;;;;;;;-1.06;100.00;102527.72;5033752;28;20205;-72
2023/02/10 07:28:08;;;;;;;46.75;26.17;;;;;;;-0.90;100.00;102537.13;5031844;28;20215;-71
2023/02/10 07:30:34;;;;;;;50.05;29.40;;;;;;;-0.73;100.00;102533.28;5033459;28;20277;-70
2023/02/10 07:33:02;;;;;;;46.80;28.20;;;;;;;-0.73;100.00;102535.94;5033008;28;20203;-71
2023/02/10 07:35:29;;;;;;;45.25;29.27;;;;;;;-0.61;100.00;102532.84;5033306;28;20254;-71
2023/02/10 07:37:56;;;;;;;44.17;25.83;;;;;;;-0.50;100.00;102534.13;5031495;28;20198;-72
2023/02/10 07:40:23;;;;;;;43.42;26.88;;;;;;;-0.44;100.00;102547.53;5023701;28;20276;-71
2023/02/10 07:42:50;;;;;;;52.45;30.95;;;;;;;-0.45;100.00;102534.28;5032258;28;20637;-72
2023/02/10 07:45:16;;;;;;;44.67;27.20;;;;;;;-0.42;100.00;102537.91;5031673;28;20250;-73
2023/02/10 07:47:44;;;;;;;49.80;28.38;;;;;;;-0.29;100.00;102546.28;5034075;28;20208;-73
2023/02/10 07:50:11;;;;;;;43.80;27.83;;;;;;;-0.25;100.00;102546.44;5034061;28;20725;-71
2023/02/10 07:52:37;;;;;;;47.95;28.73;;;;;;;-0.15;100.00;102541.44;5033191;28;20212;-71
2023/02/10 07:55:06;;;;;;;50.03;29.13;;;;;;;-0.17;100.00;102559.03;5033113;28;20721;-73
2023/02/10 07:57:32;;;;;;;46.15;29.30;;;;;;;-0.01;100.00;102564.88;5034797;28;20253;-72
2023/02/10 07:59:59;;;;;;;44.42;28.05;;;;;;;0.21;100.00;102562.91;5039566;28;20211;-73
2023/02/10 08:02:26;;;;;;;44.92;26.35;;;;;;;0.13;100.00;102562.66;5036707;28;20312;-72
2023/02/10 08:04:54;;;;;;;52.88;30.77;;;;;;;0.11;100.00;102567.00;5037438;28;20208;-72
2023/02/10 08:07:20;;;;;;;46.90;27.10;;;;;;;0.32;100.00;102557.97;5035720;28;20247;-69
2023/02/10 08:09:47;;;;;;;63.40;35.60;;;;;;;0.67;100.00;102559.00;5027684;28;20204;-68
2023/02/10 08:12:15;;;;;;;47.25;29.67;;;;;;;0.78;100.00;102568.19;5038272;28;20594;-69
2023/02/10 08:14:41;;;;;;;45.03;28.77;;;;;;;0.65;100.00;102573.09;5023931;28;20603;-71
2023/02/10 08:17:08;;;;;;;47.10;27.92;;;;;;;0.54;100.00;102571.03;5023957;28;20228;-72
2023/02/10 08:19:36;;;;;;;46.00;29.00;;;;;;;0.59;100.00;102569.41;5017933;28;20217;-71
2023/02/10 08:22:02;;;;;;;41.83;28.05;;;;;;;0.57;100.00;102555.19;5018512;28;20777;-71
2023/02/10 08:24:30;;;;;;;51.33;29.83;;;;;;;0.67;100.00;102563.44;5021166;28;20224;-72
2023/02/10 08:26:57;;;;;;;47.00;27.65;;;;;;;0.65;100.00;102555.41;5037844;28;20591;-71
2023/02/10 08:29:24;;;;;;;46.53;28.85;;;;;;;0.64;100.00;102558.03;5035454;28;20199;-72
2023/02/10 08:31:52;;;;;;;52.05;29.50;;;;;;;0.35;100.00;102558.03;5035674;28;20225;-72
2023/02/10 08:34:22;;;;;;;44.28;28.98;;;;;;;0.47;100.00;102566.38;5036301;28;20665;-74
2023/02/10 08:36:49;;;;;;;44.08;28.35;;;;;;;0.57;100.00;102568.47;5036626;28;20190;-71
2023/02/10 08:39:16;;;;;;;37.20;24.38;;;;;;;0.62;100.00;102566.84;5034166;28;20212;-70
2023/02/10 08:41:43;;;;;;;49.10;27.45;;;;;;;0.61;100.00;102574.72;5036587;28;20227;-71
2023/02/10 08:44:12;;;;;;;66.93;35.45;;;;;;;0.93;100.00;102582.78;5036164;28;20229;-73
2023/02/10 08:46:40;;;;;;;48.10;31.05;;;;;;;1.18;100.00;102590.59;5037449;28;20209;-74
2023/02/10 08:49:07;;;;;;;44.15;27.33;;;;;;;1.18;100.00;102589.69;5038945;28;20227;-73
2023/02/10 08:51:34;;;;;;;67.47;37.58;;;;;;;1.40;100.00;102592.09;5041052;28;20227;-71
2023/02/10 08:54:01;;;;;;;49.83;30.40;;;;;;;1.33;100.00;102592.75;5035143;28;20206;-72
2023/02/10 08:56:28;;;;;;;42.78;25.27;;;;;;;1.53;100.00;102595.94;5039420;28;20574;-72
2023/02/10 08:58:55;;;;;;;45.85;27.85;;;;;;;1.33;100.00;102594.50;5037351;28;20219;-73
2023/02/10 09:01:25;;;;;;;45.45;27.70;;;;;;;1.38;100.00;102588.47;5043567;28;20229;-74
2023/02/10 09:03:54;;;;;;;44.90;25.95;;;;;;;1.45;100.00;102594.88;5048373;28;20205;-71
2023/02/10 09:06:23;;;;;;;47.33;28.23;;;;;;;1.57;100.00;102594.28;5038993;28;20386;-70
2023/02/10 09:08:52;;;;;;;47.08;29.90;;;;;;;1.62;100.00;102588.22;5041536;28;20209;-73
2023/02/10 09:11:19;;;;;;;42.50;28.02;;;;;;;1.81;100.00;102579.00;5039921;28;20752;-72
2023/02/10 09:13:46;;;;;;;40.92;27.08;;;;;;;1.97;100.00;102590.03;5036371;28;20581;-71
2023/02/10 09:16:13;;;;;;;46.55;28.75;;;;;;;1.82;100.00;102583.44;5036432;28;20204;-70
2023/02/10 09:18:39;;;;;;;41.45;27.25;;;;;;;2.19;100.00;102588.75;5035869;28;20604;-71
2023/02/10 09:21:07;;;;;;;43.92;27.02;;;;;;;2.47;100.00;102582.34;5034096;28;20228;-71
2023/02/10 09:23:34;;;;;;;42.72;27.70;;;;;;;2.32;100.00;102582.88;5034671;28;20402;-71
2023/02/10 09:26:01;;;;;;;42.70;28.02;;;;;;;2.16;100.00;102586.03;5035051;28;20218;-70
2023/02/10 09:28:28;;;;;;;45.70;28.05;;;;;;;1.97;100.00;102582.03;5032687;28;20219;-71
2023/02/10 09:30:55;;;;;;;44.65;25.50;;;;;;;1.91;100.00;102579.22;5025212;28;20232;-70
2023/02/10 09:33:21;;;;;;;38.53;26.77;;;;;;;1.59;100.00;102585.50;5034037;28;20201;-74
2023/02/10 09:35:48;;;;;;;49.33;27.40;;;;;;;1.84;100.00;102595.00;5034551;28;20205;-72
2023/02/10 09:38:16;;;;;;;40.22;25.85;;;;;;;1.71;100.00;102598.19;5034120;28;20580;-71
2023/02/10 09:40:50;;;;;;;41.97;27.65;;;;;;;1.83;100.00;102601.19;5034127;28;20716;-70
2023/02/10 09:43:30;;;;;;;43.80;27.05;;;;;;;1.88;100.00;102598.66;5034586;28;20591;-71
2023/02/10 09:46:07;;;;;;;43.72;27.83;;;;;;;2.06;100.00;102604.44;5035176;28;20200;-71
2023/02/10 09:48:47;;;;;;;45.78;27.20;;;;;;;2.25;100.00;102602.22;5033913;28;20667;-70
2023/02/10 09:51:22;;;;;;;39.55;26.13;;;;;;;2.20;100.00;102601.22;5032936;28;20322;-70
2023/02/10 09:53:50;;;;;;;47.10;28.98;;;;;;;2.29;100.00;102599.66;5040075;28;20191;-71
2023/02/10 09:56:21;;;;;;;38.33;26.23;;;;;;;2.40;100.00;102602.59;5037737;28;20209;-72
2023/02/10 09:58:52;;;;;;;41.83;28.10;;;;;;;2.43;100.00;102607.06;5035723;28;20194;-71
2023/02/10 10:01:24;;;;;;;47.30;28.13;;;;;;;2.75;100.00;102601.59;5036259;28;20227;-71
2023/02/10 10:04:01;;;;;;;43.30;27.63;;;;;;;2.93;100.00;102609.97;5016214;28;20550;-71
2023/02/10 10:06:31;;;;;;;45.50;27.58;;;;;;;3.13;100.00;102605.94;5015641;28;20187;-72
2023/02/10 10:09:04;;;;;;;41.72;27.15;;;;;;;3.26;100.00;102608.88;5013646;28;20300;-69
2023/02/10 10:11:38;;;;;;;44.05;27.35;;;;;;;3.27;100.00;102600.91;5013949;28;20236;-70
2023/02/10 10:14:06;;;;;;;45.70;29.25;;;;;;;3.18;100.00;102607.81;5014132;28;20191;-71
2023/02/10 10:16:49;;;;;;;42.22;27.65;;;;;;;3.39;100.00;102608.22;5014326;28;20214;-71
2023/02/10 10:19:27;;;;;;;45.63;29.08;;;;;;;3.24;100.00;102607.94;5021033;28;20208;-71
2023/02/10 10:22:01;;;;;;;45.05;28.40;;;;;;;3.07;100.00;102612.91;5018696;28;20239;-71
2023/02/10 10:24:40;;;;;;;45.33;29.83;;;;;;;3.29;100.00;102604.50;5016692;28;20205;-71
2023/02/10 10:27:18;;;;;;;46.70;27.80;;;;;;;3.36;100.00;102613.50;5017305;28;20291;-72
2023/02/10 10:29:52;;;;;;;43.53;29.50;;;;;;;3.48;100.00;102605.78;5016212;28;20192;-73
2023/02/10 10:32:30;;;;;;;45.30;28.27;;;;;;;3.38;100.00;102609.09;5019664;28;20224;-73
2023/02/10 10:34:57;;;;;;;45.40;30.83;;;;;;;3.96;100.00;102611.97;5036561;28;20187;-71
2023/02/10 10:37:26;;;;;;;43.53;27.90;;;;;;;4.23;100.00;102615.94;5033766;28;20230;-71
2023/02/10 10:39:58;;;;;;;45.17;26.90;;;;;;;4.21;100.00;102617.72;5045560;28;20214;-70
2023/02/10 10:42:29;;;;;;;43.35;26.75;;;;;;;4.25;100.00;102616.88;5040432;28;20306;-70
2023/02/10 10:45:00;;;;;;;40.25;28.80;;;;;;;4.56;100.00;102612.91;5039389;28;20221;-70
2023/02/10 10:47:37;;;;;;;44.25;28.27;;;;;;;5.05;100.00;102615.38;5035376;28;20188;-72
2023/02/10 10:50:04;;;;;;;40.08;27.70;;;;;;;5.17;100.00;102605.72;5034203;28;20562;-72
2023/02/10 10:52:35;;;;;;;37.38;25.05;;;;;;;5.39;100.00;102605.97;5032891;28;20290;-71
2023/02/10 10:55:09;;;;;;;38.28;27.23;;;;;;;5.79;100.00;102609.09;5031635;28;20204;-72
2023/02/10 10:57:37;;;;;;;43.05;27.55;;;;;;;5.31;100.00;102603.19;5031779;28;20218;-73
2023/02/10 11:00:14;;;;;;;40.95;28.55;;;;;;;5.42;100.00;102604.22;5032804;28;20220;-71
2023/02/10 11:02:51;;;;;;;40.83;27.45;;;;;;;5.50;100.00;102600.75;5032536;28;20299;-71
2023/02/10 11:05:20;;;;;;;39.55;27.90;;;;;;;5.83;100.00;102594.81;5032155;28;20208;-71
2023/02/10 11:07:49;;;;;;;40.58;27.13;;;;;;;5.98;100.00;102588.78;5031812;28;20291;-72
2023/02/10 11:10:24;;;;;;;38.58;26.95;;;;;;;5.88;100.00;102592.19;5049311;28;20255;-72